createdAt,value
2017-09-19T00:00:35.897Z,101341.77
2017-09-19T00:03:05.821Z,101340.73
2017-09-19T00:05:34.735Z,101343.44
2017-09-19T00:08:03.113Z,101343.08
2017-09-19T00:10:31.477Z,101338.08
2017-09-19T00:13:00.154Z,101345.77
2017-09-19T00:15:29.262Z,101342.95
2017-09-19T00:17:57.636Z,101343.74
2017-09-19T00:20:26.427Z,101347.02
2017-09-19T00:22:54.791Z,101350.31
2017-09-19T00:25:23.933Z,101346.94
2017-09-19T00:27:52.693Z,101354.33
2017-09-19T00:30:21.037Z,101349.27
2017-09-19T00:32:49.369Z,101347.59
2017-09-19T00:35:18.057Z,101344.88
2017-09-19T00:37:46.431Z,101347.55
2017-09-19T00:40:14.775Z,101334.61
2017-09-19T00:42:44.422Z,101336.16
2017-09-19T00:45:12.796Z,101336.08
2017-09-19T00:47:41.830Z,101337.53
2017-09-19T00:50:11.466Z,101331.81
2017-09-19T00:52:41.287Z,101334.77
2017-09-19T00:55:09.622Z,101336.94
2017-09-19T00:57:38.373Z,101333.83
2017-09-19T01:00:06.731Z,101336.25
2017-09-19T01:02:35.861Z,101332.84
2017-09-19T01:05:04.620Z,101329.04
2017-09-19T01:07:32.988Z,101331.28
2017-09-19T01:10:02.104Z,101327.69
2017-09-19T01:12:31.209Z,101331.73
2017-09-19T01:14:59.580Z,101332.70
2017-09-19T01:17:27.930Z,101330.33
2017-09-19T01:19:56.548Z,101334.27
2017-09-19T01:22:24.993Z,101336.02
2017-09-19T01:24:53.341Z,101340.62
2017-09-19T01:27:22.174Z,101338.91
2017-09-19T01:29:50.511Z,101337.27
2017-09-19T01:32:18.857Z,101339.43
2017-09-19T01:34:48.063Z,101331.95
2017-09-19T01:37:16.436Z,101335.30
2017-09-19T01:39:44.782Z,101331.55
2017-09-19T01:42:13.500Z,101332.05
2017-09-19T01:44:41.871Z,101327.77
2017-09-19T01:47:10.220Z,101336.30
2017-09-19T01:49:38.901Z,101327.61
2017-09-19T01:52:07.274Z,101326.39
2017-09-19T01:54:36.258Z,101328.67
2017-09-19T01:57:05.065Z,101327.47
2017-09-19T01:59:33.411Z,101333.86
2017-09-19T02:02:01.769Z,101332.58
2017-09-19T02:04:30.417Z,101333.23
2017-09-19T02:06:58.799Z,101330.48
2017-09-19T02:09:27.918Z,101325.86
2017-09-19T02:11:56.809Z,101326.44
2017-09-19T02:14:25.163Z,101328.96
2017-09-19T02:16:54.694Z,101319.45
2017-09-19T02:19:23.582Z,101327.84
2017-09-19T02:21:51.942Z,101325.84
2017-09-19T02:24:21.056Z,101331.45
2017-09-19T02:26:50.073Z,101329.89
2017-09-19T02:29:18.440Z,101325.98
2017-09-19T02:31:47.561Z,101324.89
2017-09-19T02:34:16.234Z,101322.09
2017-09-19T02:36:44.886Z,101327.50
2017-09-19T02:39:13.997Z,101323.80
2017-09-19T02:41:44.229Z,101325.73
2017-09-19T02:44:12.575Z,101325.95
2017-09-19T02:46:41.702Z,101320.70
2017-09-19T02:49:10.356Z,101320.17
2017-09-19T02:51:38.708Z,101315.08
2017-09-19T02:54:07.067Z,101323.41
2017-09-19T02:56:35.924Z,101323.11
2017-09-19T02:59:04.274Z,101315.78
2017-09-19T03:01:33.360Z,101317.64
2017-09-19T03:04:02.944Z,101313.58
2017-09-19T03:06:31.288Z,101319.78
2017-09-19T03:08:59.638Z,101314.28
2017-09-19T03:11:28.324Z,101315.66
2017-09-19T03:13:56.668Z,101320.85
2017-09-19T03:16:25.018Z,101318.05
2017-09-19T03:18:53.677Z,101316.80
2017-09-19T03:21:22.040Z,101311.59
2017-09-19T03:23:50.419Z,101313.79
2017-09-19T03:26:19.391Z,101313.50
2017-09-19T03:28:47.778Z,101322.48
2017-09-19T03:31:16.131Z,101310.92
2017-09-19T03:33:44.778Z,101318.98
2017-09-19T03:36:13.136Z,101316.88
2017-09-19T03:38:41.490Z,101314.87
2017-09-19T03:41:10.243Z,101318.39
2017-09-19T03:43:38.583Z,101333.57
2017-09-19T03:46:08.517Z,101332.06
2017-09-19T03:48:38.364Z,101331.31
2017-09-19T03:51:07.514Z,101335.08
2017-09-19T03:53:35.869Z,101333.11
2017-09-19T03:56:04.805Z,101327.00
2017-09-19T03:58:33.164Z,101334.84
2017-09-19T04:01:02.282Z,101340.38
2017-09-19T04:03:31.057Z,101337.98
2017-09-19T04:05:59.400Z,101330.20
2017-09-19T04:08:27.753Z,101339.31
2017-09-19T04:10:56.925Z,101332.02
2017-09-19T04:13:26.038Z,101334.57
2017-09-19T04:15:54.395Z,101339.92
2017-09-19T04:18:23.799Z,101334.87
2017-09-19T04:20:52.137Z,101333.38
2017-09-19T04:23:20.498Z,101330.92
2017-09-19T04:25:49.503Z,101336.14
2017-09-19T04:28:18.108Z,101332.25
2017-09-19T04:30:46.465Z,101328.43
2017-09-19T04:33:15.709Z,101328.46
2017-09-19T04:35:45.726Z,101332.80
2017-09-19T04:38:14.091Z,101340.66
2017-09-19T04:40:42.732Z,101340.83
2017-09-19T04:43:11.061Z,101342.26
2017-09-19T04:45:39.419Z,101345.59
2017-09-19T04:48:08.483Z,101344.14
2017-09-19T04:50:37.724Z,101343.88
2017-09-19T04:53:06.067Z,101344.36
2017-09-19T04:55:34.966Z,101346.84
2017-09-19T04:58:03.327Z,101343.36
2017-09-19T05:00:31.742Z,101353.19
2017-09-19T05:03:00.445Z,101359.41
2017-09-19T05:05:28.798Z,101356.22
2017-09-19T05:07:57.138Z,101361.81
2017-09-19T05:10:25.751Z,101372.37
2017-09-19T05:12:54.103Z,101366.92
2017-09-19T05:15:22.439Z,101366.70
2017-09-19T05:17:51.306Z,101367.07
2017-09-19T05:20:19.676Z,101358.86
2017-09-19T05:22:48.029Z,101360.81
2017-09-19T05:25:16.918Z,101360.05
2017-09-19T05:27:45.275Z,101363.09
2017-09-19T05:30:14.386Z,101361.03
2017-09-19T05:32:43.825Z,101368.08
2017-09-19T05:35:12.171Z,101377.08
2017-09-19T05:37:41.263Z,101377.78
2017-09-19T05:40:11.084Z,101382.81
2017-09-19T05:42:39.453Z,101383.27
2017-09-19T05:45:07.823Z,101386.53
2017-09-19T05:47:36.739Z,101386.34
2017-09-19T05:50:05.117Z,101382.41
2017-09-19T05:52:33.458Z,101385.34
2017-09-19T05:55:03.134Z,101383.91
2017-09-19T05:57:31.480Z,101377.17
2017-09-19T05:59:59.859Z,101378.23
2017-09-19T06:02:29.339Z,101376.88
2017-09-19T06:04:58.458Z,101378.66
2017-09-19T06:07:26.785Z,101373.38
2017-09-19T06:09:56.142Z,101371.98
2017-09-19T06:12:24.501Z,101381.20
2017-09-19T06:14:53.639Z,101384.38
2017-09-19T06:17:22.367Z,101382.52
2017-09-19T06:19:50.752Z,101388.19
2017-09-19T06:22:19.139Z,101390.17
2017-09-19T06:24:48.465Z,101388.01
2017-09-19T06:27:16.810Z,101391.14
2017-09-19T06:29:45.165Z,101390.70
2017-09-19T06:32:13.868Z,101394.13
2017-09-19T06:34:42.306Z,101388.70
2017-09-19T06:37:10.677Z,101393.70
2017-09-19T06:39:39.383Z,101388.52
2017-09-19T06:42:07.735Z,101394.34
2017-09-19T06:44:36.936Z,101391.22
2017-09-19T06:47:06.863Z,101393.81
2017-09-19T06:49:35.247Z,101393.05
2017-09-19T06:52:03.698Z,101400.37
2017-09-19T06:54:33.229Z,101397.40
2017-09-19T06:57:01.589Z,101398.45
2017-09-19T06:59:29.986Z,101398.42
2017-09-19T07:01:58.850Z,101396.15
2017-09-19T07:04:28.021Z,101406.36
2017-09-19T07:06:56.390Z,101404.19
2017-09-19T07:09:25.396Z,101400.30
2017-09-19T07:11:53.775Z,101406.24
2017-09-19T07:14:22.779Z,101403.38
2017-09-19T07:16:51.556Z,101409.36
2017-09-19T07:19:19.974Z,101415.86
2017-09-19T07:21:48.424Z,101415.98
2017-09-19T07:24:17.346Z,101423.29
2017-09-19T07:26:45.754Z,101426.92
2017-09-19T07:29:14.887Z,101427.43
2017-09-19T07:31:43.897Z,101434.55
2017-09-19T07:34:12.286Z,101437.95
2017-09-19T07:36:41.889Z,101432.20
2017-09-19T07:39:10.505Z,101433.63
2017-09-19T07:41:39.289Z,101430.14
2017-09-19T07:44:07.649Z,101430.03
2017-09-19T07:46:36.359Z,101430.41
2017-09-19T07:49:04.772Z,101425.97
2017-09-19T07:51:33.193Z,101423.36
2017-09-19T07:54:02.447Z,101424.08
2017-09-19T07:56:30.802Z,101429.41
2017-09-19T07:58:59.145Z,101432.80
2017-09-19T08:01:28.614Z,101434.34
2017-09-19T08:03:56.952Z,101439.87
2017-09-19T08:06:25.364Z,101444.86
2017-09-19T08:08:54.194Z,101441.22
2017-09-19T08:11:22.547Z,101448.66
2017-09-19T08:13:50.926Z,101454.06
2017-09-19T08:16:20.010Z,101452.09
2017-09-19T08:18:48.375Z,101444.09
2017-09-19T08:21:16.729Z,101448.96
2017-09-19T08:23:45.357Z,101447.05
2017-09-19T08:26:13.743Z,101448.63
2017-09-19T08:28:42.110Z,101447.56
2017-09-19T08:31:11.708Z,101445.86
2017-09-19T08:33:40.053Z,101447.31
2017-09-19T08:36:09.180Z,101451.95
2017-09-19T08:38:38.063Z,101452.45
2017-09-19T08:41:06.536Z,101454.02
2017-09-19T08:43:34.886Z,101459.23
2017-09-19T08:46:03.859Z,101452.56
2017-09-19T08:48:32.209Z,101445.66
2017-09-19T08:51:00.576Z,101438.33
2017-09-19T08:53:29.358Z,101439.25
2017-09-19T08:55:57.715Z,101443.42
2017-09-19T08:58:26.040Z,101436.91
2017-09-19T09:00:54.914Z,101436.16
2017-09-19T09:03:23.500Z,101435.41
2017-09-19T09:05:51.829Z,101440.92
2017-09-19T09:08:20.559Z,101439.95
2017-09-19T09:10:48.924Z,101432.12
2017-09-19T09:13:18.060Z,101432.80
2017-09-19T09:15:46.983Z,101434.08
2017-09-19T09:18:15.339Z,101443.38
2017-09-19T09:20:44.508Z,101437.63
2017-09-19T09:23:13.597Z,101436.16
2017-09-19T09:25:41.957Z,101442.77
2017-09-19T09:28:11.092Z,101441.85
2017-09-19T09:30:39.775Z,101447.26
2017-09-19T09:33:08.160Z,101442.59
2017-09-19T09:35:36.522Z,101446.00
2017-09-19T09:38:05.305Z,101449.70
2017-09-19T09:40:33.677Z,101446.13
2017-09-19T09:43:03.013Z,101451.80
2017-09-19T09:45:31.789Z,101454.54
2017-09-19T09:48:00.971Z,101447.34
2017-09-19T09:50:29.346Z,101448.39
2017-09-19T09:52:58.864Z,101450.19
2017-09-19T09:55:27.247Z,101449.18
2017-09-19T09:57:55.615Z,101449.30
2017-09-19T10:00:24.510Z,101439.76
2017-09-19T10:02:52.853Z,101442.50
2017-09-19T10:05:21.230Z,101440.17
2017-09-19T10:07:50.266Z,101434.77
2017-09-19T10:10:18.627Z,101439.42
2017-09-19T10:12:47.767Z,101431.50
2017-09-19T10:15:16.541Z,101431.61
2017-09-19T10:17:44.896Z,101432.96
2017-09-19T10:20:14.034Z,101427.37
2017-09-19T10:22:43.422Z,101425.11
2017-09-19T10:25:11.816Z,101425.34
2017-09-19T10:27:40.187Z,101425.83
2017-09-19T10:30:09.659Z,101424.07
2017-09-19T10:32:38.773Z,101420.75
2017-09-19T10:35:07.163Z,101429.75
2017-09-19T10:37:36.112Z,101427.67
2017-09-19T10:40:05.256Z,101425.03
2017-09-19T10:42:33.702Z,101428.36
2017-09-19T10:45:02.598Z,101425.52
2017-09-19T10:47:30.983Z,101424.23
2017-09-19T10:50:00.121Z,101426.17
2017-09-19T10:52:29.270Z,101423.47
2017-09-19T10:54:57.615Z,101423.52
2017-09-19T10:57:26.886Z,101419.87
2017-09-19T10:59:55.794Z,101425.44
2017-09-19T11:02:24.170Z,101424.87
2017-09-19T11:04:52.532Z,101426.27
2017-09-19T11:07:21.235Z,101421.09
2017-09-19T11:09:49.575Z,101416.98
2017-09-19T11:12:17.954Z,101413.66
2017-09-19T11:14:47.069Z,101417.78
2017-09-19T11:17:15.668Z,101414.52
2017-09-19T11:19:43.995Z,101416.70
2017-09-19T11:22:12.887Z,101416.61
2017-09-19T11:24:42.239Z,101421.53
2017-09-19T11:27:10.585Z,101422.89
2017-09-19T11:29:40.204Z,101422.11
2017-09-19T11:32:08.565Z,101430.25
2017-09-19T11:34:36.932Z,101435.24
2017-09-19T11:37:06.909Z,101430.44
2017-09-19T11:39:35.251Z,101425.02
2017-09-19T11:42:04.790Z,101418.59
2017-09-19T11:44:33.518Z,101421.20
2017-09-19T11:47:02.767Z,101413.31
2017-09-19T11:49:31.124Z,101414.65
2017-09-19T11:51:59.840Z,101414.11
2017-09-19T11:54:28.187Z,101415.48
2017-09-19T11:56:56.553Z,101413.42
2017-09-19T11:59:25.282Z,101407.77
2017-09-19T12:01:53.652Z,101410.36
2017-09-19T12:04:22.030Z,101410.34
2017-09-19T12:06:50.896Z,101414.61
2017-09-19T12:09:19.249Z,101412.27
2017-09-19T12:11:48.367Z,101413.73
2017-09-19T12:14:17.321Z,101413.63
2017-09-19T12:16:45.703Z,101412.46
2017-09-19T12:19:14.187Z,101408.67
2017-09-19T12:21:42.880Z,101408.82
2017-09-19T12:24:11.233Z,101415.52
2017-09-19T12:26:39.574Z,101405.09
2017-09-19T12:29:08.288Z,101413.95
2017-09-19T12:31:36.820Z,101414.59
2017-09-19T12:34:05.964Z,101412.73
2017-09-19T12:36:34.725Z,101407.42
2017-09-19T12:39:03.273Z,101407.41
2017-09-19T12:41:31.615Z,101399.08
2017-09-19T12:44:00.401Z,101404.48
2017-09-19T12:46:28.783Z,101401.61
2017-09-19T12:48:57.149Z,101397.73
2017-09-19T12:51:26.035Z,101399.00
2017-09-19T12:53:54.390Z,101402.55
2017-09-19T12:56:23.496Z,101405.12
2017-09-19T12:58:52.314Z,101407.20
2017-09-19T13:01:20.654Z,101409.31
2017-09-19T13:03:50.707Z,101408.08
2017-09-19T13:06:19.865Z,101402.46
2017-09-19T13:08:49.805Z,101408.40
2017-09-19T13:11:18.225Z,101406.81
2017-09-19T13:13:47.094Z,101396.16
2017-09-19T13:16:15.464Z,101406.00
2017-09-19T13:18:43.815Z,101403.71
2017-09-19T13:21:13.251Z,101405.71
2017-09-19T13:23:41.634Z,101406.11
2017-09-19T13:26:10.000Z,101410.06
2017-09-19T13:28:38.977Z,101409.06
2017-09-19T13:31:25.643Z,101412.20
2017-09-19T13:33:54.366Z,101417.16
2017-09-19T13:36:22.784Z,101411.94
2017-09-19T13:38:51.185Z,101403.58
2017-09-19T13:41:20.044Z,101409.80
2017-09-19T13:43:49.088Z,101413.14
2017-09-19T13:46:17.493Z,101422.78
2017-09-19T13:48:47.326Z,101415.00
2017-09-19T13:51:15.796Z,101415.48
2017-09-19T13:53:44.158Z,101414.70
2017-09-19T13:56:13.001Z,101417.78
2017-09-19T13:58:41.360Z,101422.34
2017-09-19T14:01:10.325Z,101414.95
2017-09-19T14:03:39.112Z,101423.84
2017-09-19T14:06:08.409Z,101420.59
2017-09-19T14:08:37.598Z,101419.57
2017-09-19T14:11:06.867Z,101416.74
2017-09-19T14:13:35.254Z,101416.33
2017-09-19T14:16:03.640Z,101415.63
2017-09-19T14:18:32.408Z,101414.65
2017-09-19T14:21:00.782Z,101410.94
2017-09-19T14:23:29.198Z,101414.13
2017-09-19T14:25:57.898Z,101414.50
2017-09-19T14:28:26.848Z,101413.89
2017-09-19T14:30:55.275Z,101410.45
2017-09-19T14:33:25.122Z,101406.53
2017-09-19T14:35:53.500Z,101412.64
2017-09-19T14:38:21.842Z,101402.73
2017-09-19T14:40:51.523Z,101400.13
2017-09-19T14:43:19.881Z,101400.13
2017-09-19T14:45:48.273Z,101403.11
2017-09-19T14:48:17.268Z,101397.24
2017-09-19T14:50:46.503Z,101406.55
2017-09-19T14:53:14.934Z,101408.25
2017-09-19T14:55:43.925Z,101412.63
2017-09-19T14:58:12.270Z,101402.01
2017-09-19T15:00:42.014Z,101405.70
2017-09-19T15:03:10.902Z,101408.45
2017-09-19T15:05:39.380Z,101408.12
2017-09-19T15:08:07.884Z,101409.13
2017-09-19T15:10:36.645Z,101403.20
2017-09-19T15:13:05.109Z,101402.77
2017-09-19T15:15:34.318Z,101407.16
2017-09-19T15:18:04.067Z,101405.39
2017-09-19T15:20:32.507Z,101407.64
2017-09-19T15:23:01.856Z,101405.80
2017-09-19T15:25:30.751Z,101408.52
2017-09-19T15:27:59.181Z,101414.92
2017-09-19T15:30:27.592Z,101408.88
2017-09-19T15:32:56.491Z,101406.23
2017-09-19T15:35:24.982Z,101407.05
2017-09-19T15:37:54.312Z,101405.25
2017-09-19T15:40:23.848Z,101400.00
2017-09-19T15:42:52.335Z,101407.45
2017-09-19T15:45:20.817Z,101401.83
2017-09-19T15:47:49.655Z,101407.22
2017-09-19T15:50:18.108Z,101416.75
2017-09-19T15:52:46.514Z,101417.44
2017-09-19T15:55:15.463Z,101422.47
2017-09-19T15:57:43.946Z,101416.64
2017-09-19T16:00:12.376Z,101417.81
2017-09-19T16:02:41.413Z,101420.83
2017-09-19T16:05:09.779Z,101421.62
2017-09-19T16:07:38.199Z,101424.22
2017-09-19T16:10:06.847Z,101422.48
2017-09-19T16:12:35.991Z,101421.07
2017-09-19T16:15:04.356Z,101425.99
2017-09-19T16:17:33.070Z,101431.96
2017-09-19T16:20:01.525Z,101432.31
2017-09-19T16:22:29.918Z,101427.58
2017-09-19T16:24:58.717Z,101426.87
2017-09-19T16:27:27.093Z,101430.47
2017-09-19T16:29:55.532Z,101428.51
2017-09-19T16:32:24.931Z,101428.42
2017-09-19T16:34:54.207Z,101433.70
2017-09-19T16:37:22.571Z,101431.58
2017-09-19T16:39:51.240Z,101442.50
2017-09-19T16:42:19.872Z,101431.59
2017-09-19T16:44:48.308Z,101433.19
2017-09-19T16:47:18.258Z,101433.61
2017-09-19T16:49:47.397Z,101439.32
2017-09-19T16:52:16.334Z,101448.13
2017-09-19T16:54:45.172Z,101447.07
2017-09-19T16:57:13.538Z,101447.02
2017-09-19T16:59:42.672Z,101448.73
2017-09-19T17:02:11.393Z,101449.38
2017-09-19T17:04:39.778Z,101460.42
2017-09-19T17:07:08.904Z,101465.16
2017-09-19T17:09:37.661Z,101462.88
2017-09-19T17:12:06.037Z,101459.92
2017-09-19T17:14:34.399Z,101462.80
2017-09-19T17:17:03.819Z,101469.86
2017-09-19T17:19:32.191Z,101469.05
2017-09-19T17:22:00.567Z,101471.65
2017-09-19T17:24:30.035Z,101468.50
2017-09-19T17:26:58.395Z,101475.28
2017-09-19T17:29:26.791Z,101474.96
2017-09-19T17:31:55.603Z,101469.92
2017-09-19T17:34:23.987Z,101477.64
2017-09-19T17:36:52.354Z,101480.80
2017-09-19T17:39:21.031Z,101477.30
2017-09-19T17:41:49.403Z,101477.70
2017-09-19T17:44:17.755Z,101476.92
2017-09-19T17:46:47.150Z,101479.80
2017-09-19T17:49:15.511Z,101481.80
2017-09-19T17:51:43.876Z,101488.97
2017-09-19T17:54:13.030Z,101489.63
2017-09-19T17:56:41.424Z,101497.61
2017-09-19T17:59:09.810Z,101504.31
2017-09-19T18:01:38.460Z,101505.91
2017-09-19T18:04:06.843Z,101517.88
2017-09-19T18:06:35.206Z,101505.05
2017-09-19T18:09:04.592Z,101505.05
2017-09-19T18:11:33.776Z,101516.67
2017-09-19T18:14:02.169Z,101518.11
2017-09-19T18:16:31.012Z,101517.09
2017-09-19T18:18:59.391Z,101519.18
2017-09-19T18:21:27.752Z,101525.33
2017-09-19T18:23:57.228Z,101524.91
2017-09-19T18:26:25.796Z,101524.63
2017-09-19T18:28:54.175Z,101527.55
2017-09-19T18:31:22.807Z,101521.10
2017-09-19T18:33:51.940Z,101524.62
2017-09-19T18:36:20.364Z,101528.13
2017-09-19T18:38:49.082Z,101531.95
2017-09-19T18:41:17.434Z,101533.61
2017-09-19T18:43:45.777Z,101532.98
2017-09-19T18:46:14.436Z,101538.47
2017-09-19T18:48:42.799Z,101541.44
2017-09-19T18:51:11.173Z,101540.55
2017-09-19T18:53:40.698Z,101540.92
2017-09-19T18:56:09.067Z,101544.61
2017-09-19T18:58:37.414Z,101550.27
2017-09-19T19:01:06.990Z,101544.09
2017-09-19T19:03:35.368Z,101550.12
2017-09-19T19:06:03.739Z,101554.66
2017-09-19T19:08:33.242Z,101549.09
2017-09-19T19:11:01.623Z,101555.89
2017-09-19T19:13:29.993Z,101559.39
2017-09-19T19:15:58.878Z,101556.65
2017-09-19T19:18:27.248Z,101558.11
2017-09-19T19:20:55.649Z,101564.34
2017-09-19T19:23:24.579Z,101563.45
2017-09-19T19:25:52.950Z,101567.74
2017-09-19T19:28:21.298Z,101564.91
2017-09-19T19:30:50.157Z,101555.89
2017-09-19T19:33:18.525Z,101554.98
2017-09-19T19:35:48.086Z,101560.23
2017-09-19T19:38:17.955Z,101558.30
2017-09-19T19:40:47.113Z,101562.69
2017-09-19T19:43:15.499Z,101561.94
2017-09-19T19:45:44.389Z,101558.76
2017-09-19T19:48:12.791Z,101563.70
2017-09-19T19:50:41.170Z,101563.39
2017-09-19T19:53:10.819Z,101572.09
2017-09-19T19:55:39.184Z,101566.83
2017-09-19T19:58:08.429Z,101575.35
2017-09-19T20:00:37.147Z,101567.31
2017-09-19T20:03:06.296Z,101576.53
2017-09-19T20:05:34.686Z,101573.81
2017-09-19T20:08:03.724Z,101576.75
2017-09-19T20:10:32.271Z,101567.59
2017-09-19T20:13:00.831Z,101564.12
2017-09-19T20:15:29.592Z,101572.47
2017-09-19T20:17:57.974Z,101567.88
2017-09-19T20:20:26.311Z,101581.65
2017-09-19T20:22:54.971Z,101572.16
2017-09-19T20:25:23.414Z,101574.94
2017-09-19T20:27:52.106Z,101578.94
2017-09-19T20:30:20.917Z,101573.80
2017-09-19T20:32:49.301Z,101577.51
2017-09-19T20:35:17.738Z,101571.87
2017-09-19T20:37:47.150Z,101573.56
2017-09-19T20:40:15.590Z,101573.60
2017-09-19T20:42:43.957Z,101568.47
2017-09-19T20:45:12.856Z,101573.45
2017-09-19T20:47:41.199Z,101575.22
2017-09-19T20:50:09.563Z,101578.39
2017-09-19T20:52:38.461Z,101576.92
2017-09-19T20:55:06.846Z,101571.64
2017-09-19T20:57:35.203Z,101575.09
2017-09-19T21:00:04.703Z,101573.23
2017-09-19T21:02:34.510Z,101577.08
2017-09-19T21:05:09.693Z,101577.28
2017-09-19T21:07:43.684Z,101575.11
2017-09-19T21:10:18.123Z,101585.05
2017-09-19T21:12:52.967Z,101577.18
2017-09-19T21:15:27.176Z,101573.20
2017-09-19T21:18:00.902Z,101581.78
2017-09-19T21:20:29.583Z,101574.05
2017-09-19T21:22:57.951Z,101575.39
2017-09-19T21:25:26.305Z,101569.06
2017-09-19T21:27:55.550Z,101574.31
2017-09-19T21:30:23.915Z,101561.67
2017-09-19T21:32:52.288Z,101557.83
2017-09-19T21:35:21.177Z,101564.41
2017-09-19T21:37:49.559Z,101561.93
2017-09-19T21:40:17.934Z,101563.98
2017-09-19T21:42:46.826Z,101561.61
2017-09-19T21:45:15.207Z,101556.06
2017-09-19T21:47:43.584Z,101560.72
2017-09-19T21:50:12.326Z,101559.46
2017-09-19T21:52:41.429Z,101560.56
2017-09-19T21:55:10.572Z,101555.90
2017-09-19T21:57:39.211Z,101553.61
2017-09-19T22:00:08.346Z,101547.61
2017-09-19T22:02:36.702Z,101544.93
2017-09-19T22:05:05.609Z,101543.25
2017-09-19T22:07:33.971Z,101546.41
2017-09-19T22:10:02.365Z,101540.67
2017-09-19T22:12:31.183Z,101540.71
2017-09-19T22:14:59.748Z,101543.85
2017-09-19T22:17:28.118Z,101547.39
2017-09-19T22:19:56.895Z,101546.98
2017-09-19T22:22:25.266Z,101551.28
2017-09-19T22:24:53.658Z,101546.42
2017-09-19T22:27:22.413Z,101551.83
2017-09-19T22:29:51.104Z,101554.73
2017-09-19T22:32:19.443Z,101551.18
2017-09-19T22:34:48.411Z,101556.80
2017-09-19T22:37:16.771Z,101546.00
2017-09-19T22:39:45.886Z,101547.05
2017-09-19T22:42:14.578Z,101548.72
2017-09-19T22:44:42.926Z,101544.99
2017-09-19T22:47:11.557Z,101548.80
2017-09-19T22:49:40.343Z,101546.23
2017-09-19T22:52:08.695Z,101550.58
2017-09-19T22:54:37.066Z,101550.95
2017-09-19T22:57:05.925Z,101537.02
2017-09-19T22:59:34.291Z,101545.24
2017-09-19T23:02:02.640Z,101547.09
2017-09-19T23:04:32.226Z,101541.57
2017-09-19T23:07:00.601Z,101538.19
2017-09-19T23:09:29.795Z,101540.77
2017-09-19T23:11:58.694Z,101537.92
2017-09-19T23:14:27.090Z,101551.75
2017-09-19T23:16:55.442Z,101537.60
2017-09-19T23:19:25.150Z,101549.48
2017-09-19T23:21:54.276Z,101548.22
2017-09-19T23:24:22.668Z,101545.13
2017-09-19T23:26:51.319Z,101541.84
2017-09-19T23:29:20.479Z,101547.50
2017-09-19T23:31:49.331Z,101538.77
2017-09-19T23:34:17.967Z,101543.09
2017-09-19T23:36:46.301Z,101541.28
2017-09-19T23:39:14.732Z,101536.86
2017-09-19T23:41:43.577Z,101530.52
2017-09-19T23:44:12.748Z,101531.84
2017-09-19T23:46:41.857Z,101535.75
2017-09-19T23:49:10.852Z,101536.61
2017-09-19T23:51:39.228Z,101533.01
2017-09-19T23:54:07.588Z,101532.84
2017-09-19T23:56:36.231Z,101535.86
2017-09-19T23:59:04.587Z,101539.94
